Time;durP1;ratioP1;P1;durP2;ratioP2;P2;SDS_P1;SDS_P2;PMS_P1;PMS_P2;Temp;Humidity;BMP_temperature;BMP_pressure;BME280_temperature;BME280_humidity;BME280_pressure;Samples;Min_cycle;Max_cycle;Signal;HPM_P1;HPM_P2
2022/04/08 00:02:06;;;;;;;9.45;1.35;;;5.80;99.90;;;;;;5095837;28;20048;-82
2022/04/08 00:04:32;;;;;;;10.18;1.77;;;5.70;99.90;;;;;;5114569;28;20436;-86
2022/04/08 00:06:59;;;;;;;5.57;2.08;;;5.70;99.90;;;;;;5115150;28;20521;-83
2022/04/08 00:09:25;;;;;;;6.07;1.25;;;5.60;99.90;;;;;;5093806;28;20094;-84
2022/04/08 00:11:50;;;;;;;11.77;1.63;;;5.60;99.90;;;;;;5096601;28;20082;-85
2022/04/08 00:14:18;;;;;;;8.20;1.55;;;5.60;99.90;;;;;;5096085;28;20093;-84
2022/04/08 00:16:45;;;;;;;5.88;0.88;;;5.50;99.90;;;;;;5095904;28;20051;-79
2022/04/08 00:19:11;;;;;;;2.22;0.60;;;5.50;99.90;;;;;;5114459;28;20044;-81
2022/04/08 00:21:37;;;;;;;4.22;0.70;;;5.40;99.90;;;;;;5115173;28;20100;-81
2022/04/08 00:24:03;;;;;;;3.80;0.80;;;5.20;99.90;;;;;;5113649;28;20375;-84
2022/04/08 00:26:29;;;;;;;2.85;0.98;;;5.10;99.90;;;;;;5096500;28;20051;-83
2022/04/08 00:28:55;;;;;;;4.53;1.85;;;5.00;99.90;;;;;;5114285;28;20133;-83
2022/04/08 00:31:21;;;;;;;9.25;1.95;;;5.00;99.90;;;;;;5113819;28;20043;-81
2022/04/08 00:33:47;;;;;;;2.13;0.77;;;4.90;99.90;;;;;;5114015;28;20455;-83
2022/04/08 00:36:13;;;;;;;9.13;1.65;;;4.90;99.90;;;;;;5096211;28;20554;-82
2022/04/08 00:38:39;;;;;;;3.47;0.80;;;4.90;99.90;;;;;;5094752;28;20040;-82
2022/04/08 00:41:05;;;;;;;3.78;1.13;;;4.90;99.90;;;;;;5114448;28;20047;-82
2022/04/08 00:43:33;;;;;;;4.57;1.20;;;4.90;99.90;;;;;;5113156;28;20046;-82
2022/04/08 00:45:59;;;;;;;8.05;1.33;;;4.80;99.90;;;;;;5096508;28;20051;-79
2022/04/08 00:48:24;;;;;;;7.88;1.25;;;4.80;99.90;;;;;;5113949;28;20513;-84
2022/04/08 00:50:50;;;;;;;7.38;1.30;;;4.80;99.90;;;;;;5095504;28;20039;-79
2022/04/08 00:53:16;;;;;;;6.28;1.05;;;4.80;99.90;;;;;;5113634;28;20398;-80
2022/04/08 00:55:42;;;;;;;4.50;0.80;;;4.80;99.90;;;;;;5114420;28;20035;-81
2022/04/08 00:58:09;;;;;;;5.60;0.95;;;4.80;99.90;;;;;;5095485;28;20406;-82
2022/04/08 01:00:37;;;;;;;8.60;2.17;;;4.60;99.90;;;;;;5113945;28;20048;-81
2022/04/08 01:03:04;;;;;;;5.25;0.90;;;4.40;99.90;;;;;;5096077;28;20079;-82
2022/04/08 01:05:31;;;;;;;5.47;1.75;;;4.30;99.90;;;;;;5094565;28;20040;-83
2022/04/08 01:07:57;;;;;;;7.90;1.17;;;4.20;99.90;;;;;;5114251;28;20449;-83
2022/04/08 01:10:23;;;;;;;12.95;1.98;;;4.20;99.90;;;;;;5113125;28;20086;-83
2022/04/08 01:12:49;;;;;;;7.95;1.80;;;4.20;99.90;;;;;;5113125;28;20043;-82
2022/04/08 01:15:20;;;;;;;9.20;1.40;;;4.10;99.90;;;;;;5112609;28;20045;-83
2022/04/08 01:17:46;;;;;;;19.02;1.80;;;4.20;99.90;;;;;;5114031;28;20039;-83
2022/04/08 01:20:12;;;;;;;9.25;1.38;;;4.20;99.90;;;;;;5090677;28;20368;-82
2022/04/08 01:22:39;;;;;;;6.75;2.03;;;4.20;99.90;;;;;;5075490;28;20055;-83
2022/04/08 01:25:06;;;;;;;10.48;2.13;;;4.30;99.90;;;;;;5084198;28;20040;-83
2022/04/08 01:27:32;;;;;;;9.02;1.35;;;4.30;99.90;;;;;;5075008;28;20476;-83
2022/04/08 01:29:58;;;;;;;9.75;1.65;;;4.20;99.90;;;;;;5103985;28;20047;-83
2022/04/08 01:32:25;;;;;;;9.80;1.40;;;4.30;99.90;;;;;;5095572;28;20390;-83
2022/04/08 01:34:52;;;;;;;10.82;1.27;;;4.30;99.90;;;;;;5094050;28;20048;-83
2022/04/08 01:37:21;;;;;;;11.18;1.58;;;4.20;99.90;;;;;;5093843;28;20123;-83
2022/04/08 01:39:47;;;;;;;6.28;0.88;;;4.30;99.90;;;;;;5113028;28;20070;-83
2022/04/08 01:42:13;;;;;;;6.45;1.60;;;4.20;99.90;;;;;;5113125;28;20490;-83
2022/04/08 01:44:40;;;;;;;10.70;2.65;;;4.20;99.90;;;;;;5113812;28;20112;-83
2022/04/08 01:47:06;;;;;;;7.25;1.33;;;4.20;99.90;;;;;;5112319;28;20486;-83
2022/04/08 01:49:32;;;;;;;7.70;1.33;;;4.20;99.90;;;;;;5095502;28;20047;-83
2022/04/08 01:51:58;;;;;;;10.25;1.50;;;4.20;99.90;;;;;;5094645;28;20066;-83
2022/04/08 01:54:24;;;;;;;14.32;2.28;;;4.20;99.90;;;;;;5094994;28;20118;-83
2022/04/08 01:56:49;;;;;;;16.77;1.70;;;4.10;99.90;;;;;;5113018;28;20046;-83
2022/04/08 01:59:15;;;;;;;13.38;2.20;;;4.10;99.90;;;;;;5113691;28;20035;-83
2022/04/08 02:01:42;;;;;;;19.75;1.95;;;4.10;99.90;;;;;;5094317;28;20040;-83
2022/04/08 02:04:08;;;;;;;9.75;1.27;;;4.10;99.90;;;;;;5113483;28;20062;-83
2022/04/08 02:06:40;;;;;;;6.63;1.73;;;4.00;99.90;;;;;;5094499;28;20044;-83
2022/04/08 02:09:07;;;;;;;12.13;1.83;;;4.00;99.90;;;;;;5112705;28;20048;-83
2022/04/08 02:11:34;;;;;;;11.95;1.75;;;4.10;99.90;;;;;;5094263;28;20062;-83
2022/04/08 02:14:00;;;;;;;15.02;1.80;;;4.00;99.90;;;;;;5094720;28;20067;-83
2022/04/08 02:16:26;;;;;;;23.63;3.60;;;4.00;99.90;;;;;;5093974;28;20080;-83
2022/04/08 02:18:51;;;;;;;16.00;2.25;;;4.10;99.90;;;;;;5113547;28;20115;-83
2022/04/08 02:21:19;;;;;;;11.98;1.52;;;4.10;99.90;;;;;;5112901;28;20379;-83
2022/04/08 02:23:52;;;;;;;11.45;2.75;;;4.20;99.90;;;;;;5094430;28;20122;-83
2022/04/08 02:26:18;;;;;;;6.03;1.27;;;4.20;99.90;;;;;;5096555;28;20043;-82
2022/04/08 02:28:44;;;;;;;13.05;1.67;;;4.20;99.90;;;;;;5116926;28;20058;-81
2022/04/08 02:31:11;;;;;;;7.65;1.70;;;4.10;99.90;;;;;;5097357;28;20077;-83
2022/04/08 02:33:37;;;;;;;12.45;1.90;;;4.10;99.90;;;;;;5116915;28;20474;-84
2022/04/08 02:36:04;;;;;;;7.35;1.13;;;4.00;99.90;;;;;;5097480;28;20071;-83
2022/04/08 02:38:29;;;;;;;7.88;1.17;;;3.90;99.90;;;;;;5098004;28;20043;-83
2022/04/08 02:40:55;;;;;;;12.90;1.58;;;3.90;99.90;;;;;;5116345;28;20039;-82
2022/04/08 02:43:22;;;;;;;13.00;1.65;;;3.90;99.90;;;;;;5116049;28;20079;-82
2022/04/08 02:45:48;;;;;;;8.68;2.05;;;3.90;99.90;;;;;;5097904;28;20574;-84
2022/04/08 02:48:14;;;;;;;17.55;2.13;;;3.90;99.90;;;;;;5098493;28;20131;-83
2022/04/08 02:50:40;;;;;;;12.52;2.58;;;3.90;99.90;;;;;;5115178;28;20123;-83
2022/04/08 02:53:06;;;;;;;13.30;2.13;;;3.90;99.90;;;;;;5116544;28;20048;-83
2022/04/08 02:55:32;;;;;;;13.32;1.65;;;3.90;99.90;;;;;;5116107;28;20044;-83
2022/04/08 02:57:58;;;;;;;22.80;2.80;;;3.90;99.90;;;;;;5115891;28;20048;-83
2022/04/08 03:00:24;;;;;;;14.02;3.03;;;3.90;99.90;;;;;;5116376;28;20371;-83
2022/04/08 03:02:49;;;;;;;21.90;2.05;;;3.90;99.90;;;;;;5097294;28;20047;-83
2022/04/08 03:05:16;;;;;;;13.82;2.42;;;3.90;99.90;;;;;;5097133;28;20056;-83
2022/04/08 03:07:42;;;;;;;11.13;2.15;;;3.90;99.90;;;;;;5115893;28;20483;-83
2022/04/08 03:10:09;;;;;;;19.02;2.95;;;3.90;99.90;;;;;;5081183;28;20056;-83
2022/04/08 03:12:35;;;;;;;20.05;2.00;;;3.90;99.90;;;;;;5114411;28;20082;-83
2022/04/08 03:15:02;;;;;;;15.20;1.90;;;4.00;99.90;;;;;;5097906;28;20067;-84
2022/04/08 03:17:28;;;;;;;14.07;2.35;;;4.00;99.90;;;;;;5097348;28;20420;-79
2022/04/08 03:19:53;;;;;;;18.92;4.13;;;4.00;99.90;;;;;;5096590;28;20123;-83
2022/04/08 03:22:20;;;;;;;15.68;2.42;;;4.20;99.90;;;;;;5096805;28;20224;-83
2022/04/08 03:24:52;;;;;;;16.70;2.85;;;4.20;99.90;;;;;;5097776;28;20427;-83
2022/04/08 03:27:18;;;;;;;17.63;3.80;;;4.30;99.90;;;;;;5114791;28;20031;-83
2022/04/08 03:29:44;;;;;;;17.23;3.15;;;4.30;99.90;;;;;;5097650;28;20051;-82
2022/04/08 03:32:11;;;;;;;12.95;2.58;;;4.30;99.90;;;;;;5115096;28;20387;-83
2022/04/08 03:34:37;;;;;;;17.20;2.15;;;4.40;99.90;;;;;;5115367;28;20043;-83
2022/04/08 03:37:04;;;;;;;12.35;1.98;;;4.40;99.90;;;;;;5115128;28;20044;-80
2022/04/08 03:39:30;;;;;;;6.10;1.70;;;4.40;99.90;;;;;;5114114;28;20094;-80
2022/04/08 03:41:56;;;;;;;3.55;1.08;;;4.40;99.90;;;;;;5115553;28;20082;-80
2022/04/08 03:44:22;;;;;;;4.63;0.77;;;4.20;99.90;;;;;;5115283;28;20032;-79
2022/04/08 03:46:47;;;;;;;1.60;0.60;;;3.90;99.90;;;;;;5096382;28;20055;-81
2022/04/08 03:49:14;;;;;;;2.67;0.70;;;3.50;99.90;;;;;;5093589;28;20044;-79
2022/04/08 03:51:44;;;;;;;5.40;0.70;;;3.40;99.90;;;;;;5069495;28;20052;-82
2022/04/08 03:54:11;;;;;;;3.75;0.75;;;3.20;99.90;;;;;;5094416;28;20052;-83
2022/04/08 03:56:37;;;;;;;2.80;0.55;;;3.10;99.90;;;;;;5094508;28;20036;-82
2022/04/08 03:59:04;;;;;;;1.60;0.80;;;3.10;99.90;;;;;;5093671;28;20048;-82
2022/04/08 04:01:30;;;;;;;5.10;0.80;;;3.10;99.90;;;;;;5093532;28;20079;-83
2022/04/08 04:03:56;;;;;;;2.90;0.75;;;3.10;99.90;;;;;;5094394;28;20036;-82
2022/04/08 04:06:22;;;;;;;1.40;0.52;;;3.10;99.90;;;;;;5093924;28;20044;-83
2022/04/08 04:08:48;;;;;;;1.08;0.60;;;3.00;99.90;;;;;;5093731;28;20355;-83
2022/04/08 04:11:16;;;;;;;2.45;0.55;;;3.00;99.90;;;;;;5094756;28;20044;-83
2022/04/08 04:13:43;;;;;;;4.65;1.20;;;3.00;99.90;;;;;;5092926;28;20044;-83
2022/04/08 04:16:09;;;;;;;3.20;0.60;;;3.00;99.90;;;;;;5092927;28;20052;-83
2022/04/08 04:18:35;;;;;;;6.32;0.85;;;2.90;99.90;;;;;;5094164;28;20518;-83
2022/04/08 04:21:01;;;;;;;4.35;0.77;;;2.90;99.90;;;;;;5094633;28;20040;-83
2022/04/08 04:23:27;;;;;;;2.60;0.90;;;2.90;99.90;;;;;;5093378;28;20127;-83
2022/04/08 04:25:52;;;;;;;2.58;1.08;;;2.80;99.90;;;;;;5094360;28;20040;-84
2022/04/08 04:28:18;;;;;;;2.38;0.82;;;2.70;99.90;;;;;;5094128;28;20101;-84
2022/04/08 04:30:44;;;;;;;4.50;1.00;;;2.70;99.90;;;;;;5092481;28;20058;-83
2022/04/08 04:33:10;;;;;;;6.55;0.80;;;2.70;99.90;;;;;;5094334;28;20051;-83
2022/04/08 04:35:36;;;;;;;4.60;0.77;;;2.60;99.90;;;;;;5093153;28;20040;-83
2022/04/08 04:38:02;;;;;;;4.47;0.68;;;2.60;99.90;;;;;;5094143;28;20048;-83
2022/04/08 04:40:29;;;;;;;6.15;1.00;;;2.70;99.90;;;;;;5093951;28;20105;-83
2022/04/08 04:42:55;;;;;;;6.95;1.10;;;2.70;99.90;;;;;;5092055;28;20058;-82
2022/04/08 04:45:22;;;;;;;3.25;0.93;;;2.80;99.90;;;;;;5093876;28;20058;-84
2022/04/08 04:47:48;;;;;;;7.63;1.25;;;2.90;99.90;;;;;;5092863;28;20052;-82
2022/04/08 04:50:13;;;;;;;7.55;1.63;;;3.10;99.90;;;;;;5091633;28;20047;-83
2022/04/08 04:52:39;;;;;;;3.55;1.10;;;3.20;99.90;;;;;;5106153;28;20490;-84
2022/04/08 04:55:06;;;;;;;6.85;1.77;;;3.30;99.90;;;;;;5095888;28;20083;-83
2022/04/08 04:57:32;;;;;;;3.00;1.23;;;3.40;99.90;;;;;;5113472;28;20043;-84
2022/04/08 04:59:58;;;;;;;8.32;1.23;;;3.40;99.90;;;;;;5095488;28;20052;-83
2022/04/08 05:02:23;;;;;;;5.78;1.33;;;3.40;99.90;;;;;;5114233;28;20047;-84
2022/04/08 05:04:49;;;;;;;6.97;1.45;;;3.40;99.90;;;;;;5094919;28;20047;-83
2022/04/08 05:07:15;;;;;;;6.60;1.20;;;3.40;99.90;;;;;;5113793;28;20482;-83
2022/04/08 05:09:41;;;;;;;4.88;1.50;;;3.50;99.90;;;;;;5113861;28;20142;-84
2022/04/08 05:12:08;;;;;;;8.05;1.42;;;3.50;99.90;;;;;;5094994;28;20048;-83
2022/04/08 05:14:34;;;;;;;9.82;1.98;;;3.60;99.90;;;;;;5113706;28;20108;-85
2022/04/08 05:17:00;;;;;;;9.52;1.23;;;3.60;99.90;;;;;;5114172;28;20040;-84
2022/04/08 05:19:26;;;;;;;7.05;1.20;;;3.60;99.90;;;;;;5094503;28;20483;-84
2022/04/08 05:21:53;;;;;;;7.93;1.42;;;3.60;99.90;;;;;;5112994;28;20052;-86
2022/04/08 05:24:19;;;;;;;3.80;1.15;;;3.60;99.90;;;;;;5108081;28;20543;-87
2022/04/08 05:26:45;;;;;;;6.38;1.83;;;3.60;99.90;;;;;;5092849;28;20040;-88
2022/04/08 05:29:11;;;;;;;5.72;1.10;;;3.60;99.90;;;;;;5092523;28;20131;-86
2022/04/08 05:31:37;;;;;;;5.45;1.10;;;3.60;99.90;;;;;;5094761;28;20476;-87
2022/04/08 05:34:03;;;;;;;6.18;1.30;;;3.60;99.90;;;;;;5112419;28;20093;-86
2022/04/08 05:36:29;;;;;;;5.47;1.92;;;3.50;99.90;;;;;;5101151;28;20048;-86
2022/04/08 05:38:55;;;;;;;4.47;1.50;;;3.50;99.90;;;;;;5092781;28;20090;-86
2022/04/08 05:41:21;;;;;;;14.05;2.20;;;3.50;99.90;;;;;;5093395;28;20513;-86
2022/04/08 05:43:47;;;;;;;10.50;1.42;;;3.50;99.90;;;;;;5097896;28;20067;-86
2022/04/08 05:46:13;;;;;;;10.10;2.15;;;3.60;99.90;;;;;;5112997;28;20096;-86
2022/04/08 05:48:39;;;;;;;9.65;2.47;;;3.70;99.90;;;;;;5094779;28;20040;-86
2022/04/08 05:51:05;;;;;;;7.47;1.38;;;3.80;99.90;;;;;;5113717;28;20088;-85
2022/04/08 05:53:31;;;;;;;12.75;2.15;;;3.80;99.90;;;;;;5093059;28;20056;-86
2022/04/08 05:55:58;;;;;;;6.65;1.63;;;3.90;99.90;;;;;;5113269;28;20101;-86
2022/04/08 05:58:24;;;;;;;6.40;1.27;;;4.00;99.90;;;;;;5095181;28;20489;-86
2022/04/08 06:00:50;;;;;;;7.45;1.50;;;4.10;99.90;;;;;;5093787;28;20058;-86
2022/04/08 06:03:16;;;;;;;5.20;1.40;;;4.10;99.90;;;;;;5097409;28;20047;-85
2022/04/08 06:05:42;;;;;;;8.48;1.42;;;4.10;99.90;;;;;;5113741;28;20058;-86
2022/04/08 06:08:08;;;;;;;4.25;1.33;;;4.10;99.90;;;;;;5098687;28;20044;-86
2022/04/08 06:10:34;;;;;;;5.00;1.20;;;4.20;99.90;;;;;;5106963;28;20044;-86
2022/04/08 06:13:01;;;;;;;5.55;1.55;;;4.20;99.90;;;;;;5078951;28;20372;-84
2022/04/08 06:15:27;;;;;;;6.13;1.70;;;4.20;99.90;;;;;;5078895;28;20043;-85
2022/04/08 06:17:56;;;;;;;2.72;1.25;;;4.40;99.90;;;;;;5076277;28;20056;-85
2022/04/08 06:20:23;;;;;;;13.48;1.40;;;4.50;99.90;;;;;;5058767;28;20044;-84
2022/04/08 06:22:49;;;;;;;3.83;1.25;;;4.60;99.90;;;;;;5082440;28;20429;-85
2022/04/08 06:25:19;;;;;;;2.47;1.70;;;4.70;99.90;;;;;;5096941;28;20120;-86
2022/04/08 06:27:55;;;;;;;3.55;1.48;;;4.70;99.90;;;;;;5097773;28;20515;-84
2022/04/08 06:30:21;;;;;;;6.00;1.60;;;4.70;99.90;;;;;;5077811;28;20052;-86
2022/04/08 06:32:46;;;;;;;6.88;2.22;;;4.70;99.90;;;;;;5079230;28;20123;-85
2022/04/08 06:35:12;;;;;;;13.52;2.30;;;4.70;99.90;;;;;;5095898;28;20044;-84
2022/04/08 06:37:38;;;;;;;6.28;1.60;;;4.70;99.90;;;;;;5097627;28;20044;-85
2022/04/08 06:40:09;;;;;;;11.07;1.70;;;4.70;99.90;;;;;;5100377;28;20043;-85
2022/04/08 06:42:36;;;;;;;11.20;1.95;;;4.70;99.90;;;;;;5098923;28;20048;-87
2022/04/08 06:45:03;;;;;;;2.42;1.23;;;4.60;99.90;;;;;;5093303;28;20093;-81
2022/04/08 06:47:29;;;;;;;5.63;2.00;;;4.70;99.90;;;;;;5093151;28;20143;-77
2022/04/08 06:49:55;;;;;;;8.90;1.52;;;4.80;99.90;;;;;;5110482;28;20110;-77
2022/04/08 06:52:21;;;;;;;6.75;2.10;;;4.90;99.90;;;;;;5112055;28;20116;-77
2022/04/08 06:54:47;;;;;;;5.07;1.65;;;5.10;99.90;;;;;;5097219;28;20115;-77
2022/04/08 06:57:12;;;;;;;4.50;1.70;;;5.40;99.90;;;;;;5095105;28;20513;-75
2022/04/08 06:59:40;;;;;;;7.25;2.22;;;5.40;99.90;;;;;;5105891;28;20118;-77
2022/04/08 07:02:06;;;;;;;5.63;1.35;;;5.30;99.90;;;;;;5097679;28;20044;-76
2022/04/08 07:04:32;;;;;;;5.75;1.52;;;5.20;99.90;;;;;;5114953;28;20035;-76
2022/04/08 07:06:58;;;;;;;9.57;1.30;;;5.10;99.90;;;;;;5081303;28;20406;-76
2022/04/08 07:09:24;;;;;;;12.82;1.33;;;5.00;99.90;;;;;;5115645;28;20036;-76
2022/04/08 07:11:50;;;;;;;5.18;1.08;;;4.90;99.90;;;;;;5114439;28;20055;-76
2022/04/08 07:14:15;;;;;;;2.90;1.02;;;4.80;99.90;;;;;;5115110;28;20051;-77
2022/04/08 07:16:43;;;;;;;3.55;1.33;;;4.80;99.90;;;;;;5115960;28;20035;-76
2022/04/08 07:19:11;;;;;;;9.00;1.35;;;4.90;99.90;;;;;;5114671;28;20048;-76
2022/04/08 07:21:37;;;;;;;9.98;1.20;;;5.00;99.90;;;;;;5097836;28;20079;-77
2022/04/08 07:24:03;;;;;;;11.95;1.48;;;5.20;99.90;;;;;;5115415;28;20504;-76
2022/04/08 07:26:29;;;;;;;11.00;1.67;;;5.30;99.90;;;;;;5114860;28;20043;-76
2022/04/08 07:28:55;;;;;;;5.63;1.20;;;5.50;99.90;;;;;;5115311;28;20390;-75
2022/04/08 07:31:21;;;;;;;4.32;1.45;;;5.60;99.90;;;;;;5114922;28;20406;-76
2022/04/08 07:33:47;;;;;;;9.20;1.63;;;5.50;99.90;;;;;;5096565;28;20538;-76
2022/04/08 07:36:13;;;;;;;4.07;1.50;;;5.50;99.90;;;;;;5115592;28;20498;-76
2022/04/08 07:38:39;;;;;;;11.65;2.50;;;5.50;99.90;;;;;;5096069;28;20059;-76
2022/04/08 07:41:05;;;;;;;12.90;1.65;;;5.40;99.90;;;;;;5115051;28;20046;-77
2022/04/08 07:43:31;;;;;;;14.32;3.70;;;5.40;99.90;;;;;;5115153;28;20039;-77
2022/04/08 07:45:57;;;;;;;7.55;1.67;;;5.40;99.90;;;;;;5114750;28;20043;-77
2022/04/08 07:48:22;;;;;;;15.45;2.83;;;5.50;99.90;;;;;;5096952;28;20498;-77
2022/04/08 07:50:48;;;;;;;5.80;2.05;;;5.60;99.90;;;;;;5115332;28;20104;-76
2022/04/08 07:53:15;;;;;;;8.15;1.73;;;5.70;99.90;;;;;;5114055;28;20113;-77
2022/04/08 07:55:40;;;;;;;8.77;1.65;;;5.80;99.90;;;;;;5115234;28;20079;-76
2022/04/08 07:58:06;;;;;;;10.82;1.30;;;6.00;99.90;;;;;;5096514;28;20172;-76
2022/04/08 08:00:32;;;;;;;5.80;1.20;;;6.10;99.90;;;;;;5114302;28;20040;-76
2022/04/08 08:02:58;;;;;;;6.00;1.25;;;6.10;99.90;;;;;;5115017;28;20120;-76
2022/04/08 08:05:26;;;;;;;3.50;0.93;;;6.20;99.90;;;;;;5114446;28;20078;-76
2022/04/08 08:07:54;;;;;;;6.47;1.40;;;6.40;99.90;;;;;;5114186;28;20040;-76
2022/04/08 08:10:22;;;;;;;8.88;1.20;;;6.40;99.90;;;;;;5096517;28;20039;-76
2022/04/08 08:12:49;;;;;;;2.85;1.25;;;6.50;99.90;;;;;;5114978;28;20048;-76
2022/04/08 08:15:16;;;;;;;6.82;0.90;;;6.60;99.90;;;;;;5113513;28;20071;-76
2022/04/08 08:17:43;;;;;;;4.70;0.90;;;6.70;99.90;;;;;;5114861;28;20487;-76
2022/04/08 08:20:10;;;;;;;5.30;1.05;;;6.80;99.90;;;;;;5113990;28;20490;-76
2022/04/08 08:22:36;;;;;;;8.27;1.52;;;6.80;99.90;;;;;;5113764;28;20128;-76
2022/04/08 08:25:03;;;;;;;7.72;1.15;;;6.90;99.90;;;;;;5095850;28;20511;-76
2022/04/08 08:27:35;;;;;;;2.53;0.80;;;7.00;99.90;;;;;;5096353;28;20055;-75
2022/04/08 08:30:02;;;;;;;3.97;1.00;;;7.10;99.90;;;;;;5113793;28;20505;-76
2022/04/08 08:32:27;;;;;;;3.58;0.82;;;7.20;99.90;;;;;;5114039;28;20476;-76
2022/04/08 08:34:53;;;;;;;5.13;0.70;;;7.20;99.90;;;;;;5113829;28;20525;-76
2022/04/08 08:37:19;;;;;;;3.50;0.70;;;7.20;99.90;;;;;;5095775;28;20050;-76
2022/04/08 08:39:45;;;;;;;4.20;1.02;;;7.20;99.90;;;;;;5113467;28;20479;-76
2022/04/08 08:42:11;;;;;;;5.72;1.30;;;7.30;99.90;;;;;;5094967;28;20054;-76
2022/04/08 08:44:39;;;;;;;4.00;0.70;;;7.30;99.90;;;;;;5114371;28;20432;-75
2022/04/08 08:47:10;;;;;;;4.38;0.90;;;7.20;99.90;;;;;;5095581;28;20048;-76
2022/04/08 08:49:38;;;;;;;6.15;1.15;;;7.30;99.90;;;;;;5096156;28;20375;-76
2022/04/08 08:52:07;;;;;;;5.20;1.00;;;7.10;99.90;;;;;;5113368;28;20051;-76
2022/04/08 08:54:35;;;;;;;7.47;1.20;;;7.10;99.90;;;;;;5114167;28;20092;-76
2022/04/08 08:57:02;;;;;;;4.35;1.00;;;7.00;99.90;;;;;;5094347;28;20051;-76
2022/04/08 08:59:29;;;;;;;11.98;1.73;;;7.10;99.90;;;;;;5114053;28;20043;-76
2022/04/08 09:02:04;;;;;;;9.35;1.10;;;7.40;99.90;;;;;;5113039;28;20079;-76
2022/04/08 09:04:30;;;;;;;4.55;1.45;;;7.70;99.90;;;;;;5113066;28;20410;-76
2022/04/08 09:06:57;;;;;;;4.38;1.40;;;7.80;99.90;;;;;;5113666;28;20547;-76
2022/04/08 09:09:32;;;;;;;9.50;2.55;;;7.80;99.90;;;;;;5095890;28;20554;-76
2022/04/08 09:12:12;;;;;;;5.43;1.42;;;7.80;99.90;;;;;;5094818;28;20052;-77
2022/04/08 09:14:38;;;;;;;7.30;1.30;;;7.70;99.90;;;;;;5113776;28;20052;-76
2022/04/08 09:17:04;;;;;;;14.77;2.40;;;7.70;99.90;;;;;;5112542;28;20038;-76
2022/04/08 09:19:34;;;;;;;9.80;1.67;;;7.70;99.90;;;;;;5112650;28;20048;-76
2022/04/08 09:22:00;;;;;;;10.60;1.58;;;7.80;99.90;;;;;;5095574;28;20116;-76
2022/04/08 09:24:29;;;;;;;7.05;1.70;;;8.00;99.90;;;;;;5112948;28;20076;-76
2022/04/08 09:26:56;;;;;;;11.98;1.73;;;8.10;99.90;;;;;;5094775;28;20036;-76
2022/04/08 09:29:23;;;;;;;3.92;1.25;;;8.20;99.90;;;;;;5113716;28;20047;-76
2022/04/08 09:31:55;;;;;;;6.28;2.17;;;8.30;99.90;;;;;;5111639;28;20056;-76
2022/04/08 09:34:21;;;;;;;6.40;1.08;;;8.30;99.90;;;;;;5094482;28;20072;-76
2022/04/08 09:36:46;;;;;;;6.75;1.70;;;8.40;99.90;;;;;;5098234;28;20086;-77
2022/04/08 09:39:13;;;;;;;8.55;1.10;;;8.40;99.90;;;;;;5098445;28;20457;-74
2022/04/08 09:41:45;;;;;;;8.95;1.50;;;8.30;99.90;;;;;;5117805;28;20043;-76
2022/04/08 09:44:12;;;;;;;9.80;1.60;;;8.20;99.90;;;;;;5099448;28;20149;-76
2022/04/08 09:46:39;;;;;;;4.78;1.30;;;8.00;99.90;;;;;;5112165;28;20048;-77
2022/04/08 09:49:06;;;;;;;12.65;1.67;;;8.00;99.90;;;;;;5093270;28;20044;-76
2022/04/08 09:51:41;;;;;;;6.07;1.20;;;8.10;99.90;;;;;;5114119;28;20067;-76
2022/04/08 09:54:12;;;;;;;6.47;1.13;;;8.30;99.90;;;;;;5098612;28;20048;-76
2022/04/08 09:56:39;;;;;;;8.13;1.40;;;8.40;99.90;;;;;;5097340;28;20119;-76
2022/04/08 09:59:11;;;;;;;5.18;0.77;;;8.40;99.90;;;;;;5087297;28;20040;-76
2022/04/08 10:01:38;;;;;;;4.85;1.15;;;8.30;99.90;;;;;;5111155;28;20138;-77
2022/04/08 10:04:06;;;;;;;8.18;1.45;;;8.20;99.90;;;;;;5099615;28;20035;-76
2022/04/08 10:06:32;;;;;;;8.10;1.15;;;8.00;99.90;;;;;;5065435;28;20048;-76
2022/04/08 10:08:59;;;;;;;8.32;1.25;;;8.00;99.90;;;;;;5083186;28;20059;-76
2022/04/08 10:11:40;;;;;;;5.35;1.30;;;7.90;99.90;;;;;;5096019;28;20122;-77
2022/04/08 10:14:56;;;;;;;7.50;1.48;;;7.90;99.90;;;;;;5097669;28;20066;-76
2022/04/08 10:17:23;;;;;;;14.05;1.80;;;8.10;99.90;;;;;;5042922;28;20071;-76
2022/04/08 10:19:48;;;;;;;5.03;1.02;;;8.40;99.90;;;;;;5097753;28;20075;-76
2022/04/08 10:22:19;;;;;;;7.38;1.88;;;8.60;99.90;;;;;;5097769;28;20086;-76
2022/04/08 10:24:57;;;;;;;7.38;1.80;;;8.50;99.90;;;;;;5116795;28;20052;-76
2022/04/08 10:27:38;;;;;;;7.88;1.80;;;8.50;99.90;;;;;;5115801;28;20096;-77
2022/04/08 10:30:21;;;;;;;7.95;1.50;;;8.70;99.90;;;;;;5098565;28;20051;-75
2022/04/08 10:33:02;;;;;;;4.40;1.40;;;8.90;99.90;;;;;;5098274;28;20044;-76
2022/04/08 10:35:30;;;;;;;8.38;1.08;;;9.00;99.90;;;;;;5095718;28;20513;-77
2022/04/08 10:37:59;;;;;;;10.20;1.23;;;9.30;99.90;;;;;;5097718;28;20105;-77
2022/04/08 10:40:30;;;;;;;2.20;0.93;;;9.50;99.90;;;;;;5102713;28;20071;-74
2022/04/08 10:43:01;;;;;;;4.18;1.25;;;9.60;99.90;;;;;;5112508;28;20040;-76
2022/04/08 10:45:27;;;;;;;4.88;1.17;;;9.60;99.90;;;;;;5114350;28;20073;-76
2022/04/08 10:47:53;;;;;;;1.85;0.70;;;9.60;99.90;;;;;;5111892;28;20043;-76
2022/04/08 10:50:26;;;;;;;2.92;1.10;;;9.40;99.90;;;;;;5113801;28;20032;-76
2022/04/08 10:53:05;;;;;;;5.32;0.95;;;8.80;99.90;;;;;;5113222;28;20079;-76
2022/04/08 10:55:32;;;;;;;5.63;0.90;;;8.30;99.90;;;;;;5114859;28;20052;-76
2022/04/08 10:57:59;;;;;;;6.78;1.20;;;8.00;99.90;;;;;;5114914;28;20410;-76
2022/04/08 11:00:25;;;;;;;6.13;0.77;;;7.70;99.90;;;;;;5097456;28;20054;-76
2022/04/08 11:02:55;;;;;;;4.78;1.02;;;7.70;99.90;;;;;;5114357;28;20047;-75
2022/04/08 11:05:21;;;;;;;4.45;0.93;;;7.60;99.90;;;;;;5113759;28;20124;-76
2022/04/08 11:07:49;;;;;;;6.30;0.93;;;7.60;99.90;;;;;;5095966;28;20044;-76
2022/04/08 11:10:20;;;;;;;6.93;1.10;;;7.50;99.90;;;;;;5096514;28;20118;-76
2022/04/08 11:12:48;;;;;;;4.45;1.00;;;7.70;99.90;;;;;;5114689;28;20046;-74
2022/04/08 11:15:16;;;;;;;3.20;0.85;;;7.90;99.90;;;;;;5096289;28;20394;-76
2022/04/08 11:17:42;;;;;;;4.40;0.90;;;8.20;99.90;;;;;;5114317;28;20066;-76
2022/04/08 11:20:15;;;;;;;3.58;1.70;;;8.40;99.90;;;;;;5114496;28;20395;-75
2022/04/08 11:22:43;;;;;;;4.53;1.13;;;8.40;99.90;;;;;;5097778;28;20048;-75
2022/04/08 11:25:10;;;;;;;6.90;1.38;;;8.30;99.90;;;;;;5114156;28;20126;-76
2022/04/08 11:27:37;;;;;;;9.98;1.58;;;8.30;99.90;;;;;;5115595;28;20089;-75
2022/04/08 11:30:09;;;;;;;5.78;1.10;;;8.30;99.90;;;;;;5115983;28;20413;-76
2022/04/08 11:32:38;;;;;;;3.45;1.13;;;8.40;99.90;;;;;;5114073;28;20492;-76
2022/04/08 11:35:14;;;;;;;5.13;1.23;;;8.40;99.90;;;;;;5097805;28;20498;-77
2022/04/08 11:37:40;;;;;;;7.47;1.83;;;8.50;99.90;;;;;;5112721;28;20520;-76
2022/04/08 11:40:07;;;;;;;8.68;1.45;;;8.50;99.90;;;;;;5113614;28;20031;-76
2022/04/08 11:42:33;;;;;;;4.95;0.82;;;8.60;99.90;;;;;;5115757;28;20130;-76
2022/04/08 11:44:59;;;;;;;8.40;1.63;;;8.80;99.90;;;;;;5113955;28;20040;-76
2022/04/08 11:47:31;;;;;;;7.70;2.17;;;9.00;99.90;;;;;;5112749;28;20044;-75
2022/04/08 11:50:07;;;;;;;5.78;1.70;;;9.10;99.90;;;;;;5095342;28;20505;-76
2022/04/08 11:52:37;;;;;;;4.43;1.25;;;9.20;99.90;;;;;;5112276;28;20051;-76
2022/04/08 11:55:08;;;;;;;3.97;1.00;;;9.30;99.90;;;;;;5092870;28;20067;-75
2022/04/08 11:57:37;;;;;;;5.13;0.88;;;9.40;99.90;;;;;;5093672;28;20442;-74
2022/04/08 12:00:08;;;;;;;3.90;0.77;;;9.40;99.90;;;;;;5113596;28;20048;-77
2022/04/08 12:02:36;;;;;;;5.93;0.98;;;9.50;99.90;;;;;;5114565;28;20490;-76
2022/04/08 12:05:02;;;;;;;9.15;1.20;;;9.60;99.90;;;;;;5114745;28;20108;-77
2022/04/08 12:07:29;;;;;;;9.15;1.40;;;9.80;99.90;;;;;;5095983;28;20127;-77
2022/04/08 12:09:57;;;;;;;9.45;1.38;;;9.80;99.90;;;;;;5095316;28;20054;-76
2022/04/08 12:12:30;;;;;;;4.32;0.90;;;9.70;99.90;;;;;;5095106;28;20059;-77
2022/04/08 12:15:08;;;;;;;3.20;0.90;;;9.80;99.90;;;;;;5112001;28;20448;-76
2022/04/08 12:17:41;;;;;;;4.57;1.75;;;9.80;99.90;;;;;;5090787;28;20105;-75
2022/04/08 12:20:14;;;;;;;5.47;0.88;;;9.60;99.90;;;;;;5114172;28;20525;-76
2022/04/08 12:22:40;;;;;;;5.97;1.42;;;9.40;99.90;;;;;;5114491;28;20109;-76
2022/04/08 12:25:07;;;;;;;2.55;0.77;;;9.20;99.90;;;;;;5115003;28;20489;-76
2022/04/08 12:27:34;;;;;;;4.85;1.02;;;9.10;99.90;;;;;;5113723;28;20036;-75
2022/04/08 12:30:01;;;;;;;7.40;1.00;;;9.00;99.90;;;;;;5096817;28;20059;-75
2022/04/08 12:32:39;;;;;;;5.07;0.93;;;8.90;99.90;;;;;;5095545;28;20047;-76
2022/04/08 12:35:07;;;;;;;5.93;1.45;;;8.80;99.90;;;;;;5114069;28;20040;-76
2022/04/08 12:37:33;;;;;;;7.35;1.25;;;9.00;99.90;;;;;;5114003;28;20055;-76
2022/04/08 12:39:59;;;;;;;3.80;1.20;;;9.20;99.90;;;;;;5114519;28;20039;-76
2022/04/08 12:42:24;;;;;;;9.70;1.55;;;9.40;99.90;;;;;;5112649;28;20043;-76
2022/04/08 12:44:50;;;;;;;4.47;1.00;;;9.30;99.90;;;;;;5114607;28;20112;-75
2022/04/08 12:47:16;;;;;;;4.05;1.05;;;9.10;99.90;;;;;;5114176;28;20035;-75
2022/04/08 12:49:42;;;;;;;8.55;1.23;;;8.00;99.90;;;;;;5112194;28;20035;-76
2022/04/08 12:52:07;;;;;;;6.32;1.50;;;8.80;99.90;;;;;;5095813;28;20482;-76
2022/04/08 12:54:33;;;;;;;5.20;1.33;;;8.70;99.90;;;;;;5112404;28;20047;-76
2022/04/08 12:56:59;;;;;;;11.77;2.60;;;8.70;99.90;;;;;;5113525;28;20047;-75